sensor_id;sensor_type;location;lat;lon;timestamp;P1;durP1;ratioP1;P2;durP2;ratioP2
74644;SDS011;63163;55.630;37.594;2023-04-25T00:00:04;9.4;;;4.1;;
74644;SDS011;63163;55.630;37.594;2023-04-25T00:01:07;11.7;;;5.1;;
74644;SDS011;63163;55.630;37.594;2023-04-25T00:02:09;12.7;;;4.6;;
74644;SDS011;63163;55.630;37.594;2023-04-25T00:03:09;13.0;;;4.6;;
74644;SDS011;63163;55.630;37.594;2023-04-25T00:04:10;12.5;;;4.4;;
74644;SDS011;63163;55.630;37.594;2023-04-25T00:05:11;9.4;;;4.0;;
74644;SDS011;63163;55.630;37.594;2023-04-25T00:06:12;13.7;;;4.6;;
74644;SDS011;63163;55.630;37.594;2023-04-25T00:07:12;10.2;;;4.4;;
74644;SDS011;63163;55.630;37.594;2023-04-25T00:08:13;9.3;;;4.9;;
74644;SDS011;63163;55.630;37.594;2023-04-25T00:09:13;11.6;;;4.8;;
74644;SDS011;63163;55.630;37.594;2023-04-25T00:10:14;10.1;;;4.6;;
74644;SDS011;63163;55.630;37.594;2023-04-25T00:11:14;9.2;;;4.4;;
74644;SDS011;63163;55.630;37.594;2023-04-25T00:12:15;11.4;;;4.4;;
74644;SDS011;63163;55.630;37.594;2023-04-25T00:13:16;11.4;;;4.2;;
74644;SDS011;63163;55.630;37.594;2023-04-25T00:14:17;9.7;;;4.0;;
74644;SDS011;63163;55.630;37.594;2023-04-25T00:15:18;11.8;;;4.5;;
74644;SDS011;63163;55.630;37.594;2023-04-25T00:16:18;10.3;;;4.9;;
74644;SDS011;63163;55.630;37.594;2023-04-25T00:17:19;10.5;;;4.2;;
74644;SDS011;63163;55.630;37.594;2023-04-25T00:18:20;11.0;;;4.6;;
74644;SDS011;63163;55.630;37.594;2023-04-25T00:19:20;16.9;;;5.2;;
74644;SDS011;63163;55.630;37.594;2023-04-25T00:20:21;12.8;;;5.1;;
74644;SDS011;63163;55.630;37.594;2023-04-25T00:21:22;11.5;;;5.1;;
74644;SDS011;63163;55.630;37.594;2023-04-25T00:22:24;11.4;;;4.5;;
74644;SDS011;63163;55.630;37.594;2023-04-25T00:23:25;12.8;;;4.3;;
74644;SDS011;63163;55.630;37.594;2023-04-25T00:24:26;12.1;;;5.0;;
74644;SDS011;63163;55.630;37.594;2023-04-25T00:25:26;10.8;;;4.7;;
74644;SDS011;63163;55.630;37.594;2023-04-25T00:26:27;10.5;;;4.6;;
74644;SDS011;63163;55.630;37.594;2023-04-25T00:27:28;9.4;;;4.6;;
74644;SDS011;63163;55.630;37.594;2023-04-25T00:28:28;9.9;;;5.1;;
74644;SDS011;63163;55.630;37.594;2023-04-25T00:29:29;9.3;;;4.5;;
74644;SDS011;63163;55.630;37.594;2023-04-25T00:30:29;10.9;;;4.4;;
74644;SDS011;63163;55.630;37.594;2023-04-25T00:31:30;15.4;;;4.4;;
74644;SDS011;63163;55.630;37.594;2023-04-25T00:32:30;12.8;;;4.6;;
74644;SDS011;63163;55.630;37.594;2023-04-25T00:33:31;10.3;;;4.4;;
74644;SDS011;63163;55.630;37.594;2023-04-25T00:34:31;11.4;;;4.4;;
74644;SDS011;63163;55.630;37.594;2023-04-25T00:35:32;9.4;;;4.4;;
74644;SDS011;63163;55.630;37.594;2023-04-25T00:36:32;13.6;;;4.5;;
74644;SDS011;63163;55.630;37.594;2023-04-25T00:37:33;13.9;;;4.8;;
74644;SDS011;63163;55.630;37.594;2023-04-25T00:38:33;8.7;;;5.0;;
74644;SDS011;63163;55.630;37.594;2023-04-25T00:39:34;10.2;;;4.7;;
74644;SDS011;63163;55.630;37.594;2023-04-25T00:40:35;12.5;;;4.6;;
74644;SDS011;63163;55.630;37.594;2023-04-25T00:41:35;11.0;;;5.1;;
74644;SDS011;63163;55.630;37.594;2023-04-25T00:42:36;11.2;;;4.9;;
74644;SDS011;63163;55.630;37.594;2023-04-25T00:43:37;14.0;;;4.9;;
74644;SDS011;63163;55.630;37.594;2023-04-25T00:44:38;13.4;;;4.6;;
74644;SDS011;63163;55.630;37.594;2023-04-25T00:45:39;11.1;;;5.0;;
74644;SDS011;63163;55.630;37.594;2023-04-25T00:46:40;12.1;;;4.8;;
74644;SDS011;63163;55.630;37.594;2023-04-25T00:47:42;10.6;;;4.7;;
74644;SDS011;63163;55.630;37.594;2023-04-25T00:48:43;14.6;;;5.0;;
74644;SDS011;63163;55.630;37.594;2023-04-25T00:49:43;12.9;;;5.1;;
74644;SDS011;63163;55.630;37.594;2023-04-25T00:50:44;11.7;;;4.9;;
74644;SDS011;63163;55.630;37.594;2023-04-25T00:51:47;9.4;;;4.2;;
74644;SDS011;63163;55.630;37.594;2023-04-25T00:52:48;10.6;;;4.6;;
74644;SDS011;63163;55.630;37.594;2023-04-25T00:53:49;9.5;;;4.5;;
74644;SDS011;63163;55.630;37.594;2023-04-25T00:54:49;15.2;;;4.6;;
74644;SDS011;63163;55.630;37.594;2023-04-25T00:55:50;9.0;;;4.5;;
74644;SDS011;63163;55.630;37.594;2023-04-25T00:56:51;13.6;;;4.8;;
74644;SDS011;63163;55.630;37.594;2023-04-25T00:57:52;12.1;;;5.0;;
74644;SDS011;63163;55.630;37.594;2023-04-25T00:58:53;12.3;;;4.7;;
74644;SDS011;63163;55.630;37.594;2023-04-25T00:59:54;13.5;;;5.0;;
74644;SDS011;63163;55.630;37.594;2023-04-25T01:00:55;14.1;;;5.2;;
74644;SDS011;63163;55.630;37.594;2023-04-25T01:01:56;8.9;;;4.4;;
74644;SDS011;63163;55.630;37.594;2023-04-25T01:02:56;11.2;;;4.9;;
74644;SDS011;63163;55.630;37.594;2023-04-25T01:03:58;12.0;;;5.4;;
74644;SDS011;63163;55.630;37.594;2023-04-25T01:04:58;12.1;;;4.5;;
74644;SDS011;63163;55.630;37.594;2023-04-25T01:05:59;14.0;;;5.0;;
74644;SDS011;63163;55.630;37.594;2023-04-25T01:06:59;10.9;;;5.0;;
74644;SDS011;63163;55.630;37.594;2023-04-25T01:08:00;12.8;;;5.3;;
74644;SDS011;63163;55.630;37.594;2023-04-25T01:09:01;12.8;;;5.1;;
74644;SDS011;63163;55.630;37.594;2023-04-25T01:10:02;11.1;;;4.8;;
74644;SDS011;63163;55.630;37.594;2023-04-25T01:11:03;9.3;;;4.8;;
74644;SDS011;63163;55.630;37.594;2023-04-25T01:12:04;13.2;;;4.7;;
74644;SDS011;63163;55.630;37.594;2023-04-25T01:13:05;10.0;;;4.9;;
74644;SDS011;63163;55.630;37.594;2023-04-25T01:14:05;13.5;;;4.9;;
74644;SDS011;63163;55.630;37.594;2023-04-25T01:15:06;12.0;;;4.7;;
74644;SDS011;63163;55.630;37.594;2023-04-25T01:16:07;11.2;;;4.7;;
74644;SDS011;63163;55.630;37.594;2023-04-25T01:17:08;10.0;;;4.8;;
74644;SDS011;63163;55.630;37.594;2023-04-25T01:18:09;10.6;;;4.7;;
74644;SDS011;63163;55.630;37.594;2023-04-25T01:19:10;8.8;;;4.7;;
74644;SDS011;63163;55.630;37.594;2023-04-25T01:20:12;8.6;;;4.2;;
74644;SDS011;63163;55.630;37.594;2023-04-25T01:21:14;10.3;;;4.4;;
74644;SDS011;63163;55.630;37.594;2023-04-25T01:22:15;10.2;;;4.5;;
74644;SDS011;63163;55.630;37.594;2023-04-25T01:23:15;10.7;;;4.7;;
74644;SDS011;63163;55.630;37.594;2023-04-25T01:24:16;10.0;;;4.4;;
74644;SDS011;63163;55.630;37.594;2023-04-25T01:25:18;9.7;;;4.4;;
74644;SDS011;63163;55.630;37.594;2023-04-25T01:26:19;11.7;;;4.8;;
74644;SDS011;63163;55.630;37.594;2023-04-25T01:27:21;12.7;;;4.7;;
74644;SDS011;63163;55.630;37.594;2023-04-25T01:28:23;13.8;;;5.0;;
74644;SDS011;63163;55.630;37.594;2023-04-25T01:29:23;11.4;;;4.6;;
74644;SDS011;63163;55.630;37.594;2023-04-25T01:30:25;12.2;;;4.4;;
74644;SDS011;63163;55.630;37.594;2023-04-25T01:31:26;9.3;;;5.1;;
74644;SDS011;63163;55.630;37.594;2023-04-25T01:32:27;11.2;;;4.5;;
74644;SDS011;63163;55.630;37.594;2023-04-25T01:33:28;8.8;;;4.4;;
74644;SDS011;63163;55.630;37.594;2023-04-25T01:34:29;10.7;;;4.3;;
74644;SDS011;63163;55.630;37.594;2023-04-25T01:35:29;10.2;;;4.7;;
74644;SDS011;63163;55.630;37.594;2023-04-25T01:36:30;10.2;;;4.9;;
74644;SDS011;63163;55.630;37.594;2023-04-25T01:37:31;10.3;;;4.6;;
74644;SDS011;63163;55.630;37.594;2023-04-25T01:38:31;11.3;;;4.6;;
74644;SDS011;63163;55.630;37.594;2023-04-25T01:39:32;11.0;;;4.6;;
74644;SDS011;63163;55.630;37.594;2023-04-25T01:40:33;9.9;;;4.3;;
74644;SDS011;63163;55.630;37.594;2023-04-25T01:41:34;11.2;;;4.2;;
74644;SDS011;63163;55.630;37.594;2023-04-25T01:42:36;11.7;;;4.7;;
74644;SDS011;63163;55.630;37.594;2023-04-25T01:43:36;11.6;;;4.5;;
74644;SDS011;63163;55.630;37.594;2023-04-25T01:44:37;15.0;;;4.9;;
74644;SDS011;63163;55.630;37.594;2023-04-25T01:45:38;12.9;;;4.7;;
74644;SDS011;63163;55.630;37.594;2023-04-25T01:46:41;12.5;;;4.6;;
74644;SDS011;63163;55.630;37.594;2023-04-25T01:47:41;12.1;;;4.6;;
74644;SDS011;63163;55.630;37.594;2023-04-25T01:48:43;10.8;;;4.2;;
74644;SDS011;63163;55.630;37.594;2023-04-25T01:49:44;7.4;;;4.3;;
74644;SDS011;63163;55.630;37.594;2023-04-25T01:50:45;8.5;;;4.5;;
74644;SDS011;63163;55.630;37.594;2023-04-25T01:51:45;9.9;;;4.7;;
74644;SDS011;63163;55.630;37.594;2023-04-25T01:52:46;8.7;;;4.8;;
74644;SDS011;63163;55.630;37.594;2023-04-25T01:53:46;12.6;;;4.9;;
74644;SDS011;63163;55.630;37.594;2023-04-25T01:54:47;9.3;;;4.7;;
74644;SDS011;63163;55.630;37.594;2023-04-25T01:55:48;11.3;;;5.1;;
74644;SDS011;63163;55.630;37.594;2023-04-25T01:56:49;11.8;;;5.1;;
74644;SDS011;63163;55.630;37.594;2023-04-25T01:57:50;10.5;;;4.9;;
74644;SDS011;63163;55.630;37.594;2023-04-25T01:58:51;12.7;;;5.4;;
74644;SDS011;63163;55.630;37.594;2023-04-25T01:59:52;13.9;;;5.6;;
74644;SDS011;63163;55.630;37.594;2023-04-25T02:00:55;13.3;;;5.0;;
74644;SDS011;63163;55.630;37.594;2023-04-25T02:01:55;8.7;;;5.2;;
74644;SDS011;63163;55.630;37.594;2023-04-25T02:02:57;12.7;;;4.5;;
74644;SDS011;63163;55.630;37.594;2023-04-25T02:03:57;9.6;;;4.3;;
74644;SDS011;63163;55.630;37.594;2023-04-25T02:04:58;12.8;;;5.1;;
74644;SDS011;63163;55.630;37.594;2023-04-25T02:05:58;9.6;;;4.8;;
74644;SDS011;63163;55.630;37.594;2023-04-25T02:06:59;11.3;;;4.6;;
74644;SDS011;63163;55.630;37.594;2023-04-25T02:08:00;16.7;;;5.4;;
74644;SDS011;63163;55.630;37.594;2023-04-25T02:09:00;7.4;;;4.3;;
74644;SDS011;63163;55.630;37.594;2023-04-25T02:10:01;12.1;;;4.9;;
74644;SDS011;63163;55.630;37.594;2023-04-25T02:11:01;8.6;;;4.6;;
74644;SDS011;63163;55.630;37.594;2023-04-25T02:12:03;11.7;;;4.3;;
74644;SDS011;63163;55.630;37.594;2023-04-25T02:13:04;11.2;;;4.9;;
74644;SDS011;63163;55.630;37.594;2023-04-25T02:14:05;14.3;;;4.7;;
74644;SDS011;63163;55.630;37.594;2023-04-25T02:15:06;9.0;;;4.4;;
74644;SDS011;63163;55.630;37.594;2023-04-25T02:16:06;12.3;;;4.1;;
74644;SDS011;63163;55.630;37.594;2023-04-25T02:17:07;9.2;;;4.5;;
74644;SDS011;63163;55.630;37.594;2023-04-25T02:18:07;9.0;;;4.5;;
74644;SDS011;63163;55.630;37.594;2023-04-25T02:19:10;10.7;;;4.3;;
74644;SDS011;63163;55.630;37.594;2023-04-25T02:20:11;10.5;;;4.2;;
74644;SDS011;63163;55.630;37.594;2023-04-25T02:21:11;12.5;;;4.4;;
74644;SDS011;63163;55.630;37.594;2023-04-25T02:22:12;8.4;;;4.8;;
74644;SDS011;63163;55.630;37.594;2023-04-25T02:23:12;10.6;;;4.9;;
74644;SDS011;63163;55.630;37.594;2023-04-25T02:24:15;13.5;;;5.0;;
74644;SDS011;63163;55.630;37.594;2023-04-25T02:25:16;8.6;;;4.7;;
74644;SDS011;63163;55.630;37.594;2023-04-25T02:26:16;8.8;;;4.8;;
74644;SDS011;63163;55.630;37.594;2023-04-25T02:27:17;10.8;;;4.7;;
74644;SDS011;63163;55.630;37.594;2023-04-25T02:28:17;9.9;;;4.6;;
74644;SDS011;63163;55.630;37.594;2023-04-25T02:29:18;8.7;;;4.9;;
74644;SDS011;63163;55.630;37.594;2023-04-25T02:30:18;9.9;;;5.0;;
74644;SDS011;63163;55.630;37.594;2023-04-25T02:31:19;9.1;;;4.4;;
74644;SDS011;63163;55.630;37.594;2023-04-25T02:32:19;10.1;;;4.6;;
74644;SDS011;63163;55.630;37.594;2023-04-25T02:33:20;9.9;;;4.7;;
74644;SDS011;63163;55.630;37.594;2023-04-25T02:34:21;9.6;;;4.6;;
74644;SDS011;63163;55.630;37.594;2023-04-25T02:35:21;10.5;;;5.0;;
74644;SDS011;63163;55.630;37.594;2023-04-25T02:36:22;7.0;;;4.2;;
74644;SDS011;63163;55.630;37.594;2023-04-25T02:37:22;9.1;;;4.6;;
74644;SDS011;63163;55.630;37.594;2023-04-25T02:38:23;12.1;;;4.6;;
74644;SDS011;63163;55.630;37.594;2023-04-25T02:39:23;9.4;;;4.3;;
74644;SDS011;63163;55.630;37.594;2023-04-25T02:40:25;10.5;;;4.8;;
74644;SDS011;63163;55.630;37.594;2023-04-25T02:41:25;12.3;;;4.6;;
74644;SDS011;63163;55.630;37.594;2023-04-25T02:42:26;9.8;;;4.7;;
74644;SDS011;63163;55.630;37.594;2023-04-25T02:43:27;10.8;;;4.9;;
74644;SDS011;63163;55.630;37.594;2023-04-25T02:44:27;8.5;;;4.2;;
74644;SDS011;63163;55.630;37.594;2023-04-25T02:45:28;10.2;;;4.3;;
74644;SDS011;63163;55.630;37.594;2023-04-25T02:46:28;9.9;;;4.5;;
74644;SDS011;63163;55.630;37.594;2023-04-25T02:47:29;11.3;;;4.4;;
74644;SDS011;63163;55.630;37.594;2023-04-25T02:48:29;10.3;;;5.3;;
74644;SDS011;63163;55.630;37.594;2023-04-25T02:49:30;9.8;;;4.3;;
74644;SDS011;63163;55.630;37.594;2023-04-25T02:50:30;10.8;;;4.9;;
74644;SDS011;63163;55.630;37.594;2023-04-25T02:51:31;10.7;;;4.3;;
74644;SDS011;63163;55.630;37.594;2023-04-25T02:52:32;12.7;;;4.8;;
74644;SDS011;63163;55.630;37.594;2023-04-25T02:53:33;9.5;;;4.8;;
74644;SDS011;63163;55.630;37.594;2023-04-25T02:54:33;12.6;;;4.8;;
74644;SDS011;63163;55.630;37.594;2023-04-25T02:55:34;11.4;;;5.0;;
74644;SDS011;63163;55.630;37.594;2023-04-25T02:56:35;10.0;;;4.9;;
74644;SDS011;63163;55.630;37.594;2023-04-25T02:57:35;11.5;;;4.6;;
74644;SDS011;63163;55.630;37.594;2023-04-25T02:58:36;13.5;;;5.1;;
74644;SDS011;63163;55.630;37.594;2023-04-25T02:59:36;10.7;;;5.0;;
74644;SDS011;63163;55.630;37.594;2023-04-25T03:00:37;13.6;;;5.5;;
74644;SDS011;63163;55.630;37.594;2023-04-25T03:01:37;9.2;;;4.8;;
74644;SDS011;63163;55.630;37.594;2023-04-25T03:02:38;11.1;;;4.9;;
74644;SDS011;63163;55.630;37.594;2023-04-25T03:03:38;11.8;;;5.3;;
74644;SDS011;63163;55.630;37.594;2023-04-25T03:04:39;11.0;;;5.1;;
74644;SDS011;63163;55.630;37.594;2023-04-25T03:05:40;8.7;;;5.5;;
74644;SDS011;63163;55.630;37.594;2023-04-25T03:06:40;10.0;;;5.0;;
74644;SDS011;63163;55.630;37.594;2023-04-25T03:07:41;11.3;;;4.8;;
74644;SDS011;63163;55.630;37.594;2023-04-25T03:08:43;11.4;;;5.5;;
74644;SDS011;63163;55.630;37.594;2023-04-25T03:09:44;10.0;;;5.0;;
74644;SDS011;63163;55.630;37.594;2023-04-25T03:10:45;10.4;;;5.5;;
74644;SDS011;63163;55.630;37.594;2023-04-25T03:11:45;11.6;;;5.2;;
74644;SDS011;63163;55.630;37.594;2023-04-25T03:12:46;10.9;;;5.5;;
74644;SDS011;63163;55.630;37.594;2023-04-25T03:13:46;10.7;;;5.3;;
74644;SDS011;63163;55.630;37.594;2023-04-25T03:14:47;12.6;;;5.4;;
74644;SDS011;63163;55.630;37.594;2023-04-25T03:15:47;9.2;;;4.7;;
74644;SDS011;63163;55.630;37.594;2023-04-25T03:16:48;11.9;;;5.9;;
74644;SDS011;63163;55.630;37.594;2023-04-25T03:17:48;11.2;;;5.3;;
74644;SDS011;63163;55.630;37.594;2023-04-25T03:18:49;14.8;;;5.7;;
74644;SDS011;63163;55.630;37.594;2023-04-25T03:19:50;10.7;;;5.3;;
74644;SDS011;63163;55.630;37.594;2023-04-25T03:20:51;10.9;;;5.2;;
74644;SDS011;63163;55.630;37.594;2023-04-25T03:21:51;13.5;;;5.8;;
74644;SDS011;63163;55.630;37.594;2023-04-25T03:22:53;12.3;;;5.6;;
74644;SDS011;63163;55.630;37.594;2023-04-25T03:23:54;10.0;;;5.6;;
74644;SDS011;63163;55.630;37.594;2023-04-25T03:24:54;11.6;;;6.0;;
74644;SDS011;63163;55.630;37.594;2023-04-25T03:25:55;10.8;;;5.3;;
74644;SDS011;63163;55.630;37.594;2023-04-25T03:26:55;11.1;;;5.1;;
74644;SDS011;63163;55.630;37.594;2023-04-25T03:27:56;11.7;;;5.9;;
74644;SDS011;63163;55.630;37.594;2023-04-25T03:28:56;13.4;;;5.7;;
74644;SDS011;63163;55.630;37.594;2023-04-25T03:29:57;10.5;;;5.6;;
74644;SDS011;63163;55.630;37.594;2023-04-25T03:30:57;15.3;;;5.8;;
74644;SDS011;63163;55.630;37.594;2023-04-25T03:31:58;8.9;;;5.5;;
74644;SDS011;63163;55.630;37.594;2023-04-25T03:32:58;10.0;;;5.6;;
74644;SDS011;63163;55.630;37.594;2023-04-25T03:33:59;12.8;;;6.0;;
74644;SDS011;63163;55.630;37.594;2023-04-25T03:35:00;16.8;;;5.8;;
74644;SDS011;63163;55.630;37.594;2023-04-25T03:36:00;10.2;;;5.1;;
74644;SDS011;63163;55.630;37.594;2023-04-25T03:37:01;12.2;;;6.0;;
74644;SDS011;63163;55.630;37.594;2023-04-25T03:38:01;11.6;;;5.6;;
74644;SDS011;63163;55.630;37.594;2023-04-25T03:39:02;18.0;;;6.1;;
74644;SDS011;63163;55.630;37.594;2023-04-25T03:40:03;17.9;;;9.3;;
74644;SDS011;63163;55.630;37.594;2023-04-25T03:41:04;15.7;;;8.5;;
74644;SDS011;63163;55.630;37.594;2023-04-25T03:42:04;12.2;;;6.2;;
74644;SDS011;63163;55.630;37.594;2023-04-25T03:43:05;13.2;;;6.4;;
74644;SDS011;63163;55.630;37.594;2023-04-25T03:44:05;14.7;;;5.5;;
74644;SDS011;63163;55.630;37.594;2023-04-25T03:45:07;15.7;;;6.2;;
74644;SDS011;63163;55.630;37.594;2023-04-25T03:46:07;15.7;;;6.3;;
74644;SDS011;63163;55.630;37.594;2023-04-25T03:47:08;11.2;;;6.1;;
74644;SDS011;63163;55.630;37.594;2023-04-25T03:48:08;15.1;;;6.4;;
74644;SDS011;63163;55.630;37.594;2023-04-25T03:49:09;13.3;;;6.4;;
74644;SDS011;63163;55.630;37.594;2023-04-25T03:50:09;15.8;;;6.4;;
74644;SDS011;63163;55.630;37.594;2023-04-25T03:51:10;10.8;;;6.3;;
74644;SDS011;63163;55.630;37.594;2023-04-25T03:52:10;14.3;;;6.7;;
74644;SDS011;63163;55.630;37.594;2023-04-25T03:53:11;14.2;;;6.5;;
74644;SDS011;63163;55.630;37.594;2023-04-25T03:54:11;15.4;;;6.2;;
74644;SDS011;63163;55.630;37.594;2023-04-25T03:55:12;14.6;;;6.7;;
74644;SDS011;63163;55.630;37.594;2023-04-25T03:56:12;15.5;;;6.9;;
74644;SDS011;63163;55.630;37.594;2023-04-25T03:57:13;12.6;;;6.8;;
74644;SDS011;63163;55.630;37.594;2023-04-25T03:58:14;16.1;;;6.6;;
74644;SDS011;63163;55.630;37.594;2023-04-25T03:59:14;15.8;;;7.1;;
74644;SDS011;63163;55.630;37.594;2023-04-25T04:00:15;13.0;;;6.5;;
74644;SDS011;63163;55.630;37.594;2023-04-25T04:01:15;11.4;;;6.1;;
74644;SDS011;63163;55.630;37.594;2023-04-25T04:02:17;10.8;;;6.4;;
74644;SDS011;63163;55.630;37.594;2023-04-25T04:03:17;13.4;;;6.8;;
74644;SDS011;63163;55.630;37.594;2023-04-25T04:04:18;16.4;;;6.4;;
74644;SDS011;63163;55.630;37.594;2023-04-25T04:05:18;13.6;;;6.3;;
74644;SDS011;63163;55.630;37.594;2023-04-25T04:06:19;14.1;;;6.7;;
74644;SDS011;63163;55.630;37.594;2023-04-25T04:07:20;12.8;;;6.4;;
74644;SDS011;63163;55.630;37.594;2023-04-25T04:08:21;12.4;;;6.6;;
74644;SDS011;63163;55.630;37.594;2023-04-25T04:09:21;13.7;;;6.9;;
74644;SDS011;63163;55.630;37.594;2023-04-25T04:10:22;13.6;;;6.6;;
74644;SDS011;63163;55.630;37.594;2023-04-25T04:11:22;13.4;;;6.3;;
74644;SDS011;63163;55.630;37.594;2023-04-25T04:12:23;11.9;;;6.2;;
74644;SDS011;63163;55.630;37.594;2023-04-25T04:13:25;14.0;;;6.5;;
74644;SDS011;63163;55.630;37.594;2023-04-25T04:14:25;16.4;;;6.7;;
74644;SDS011;63163;55.630;37.594;2023-04-25T04:15:26;15.1;;;6.8;;
74644;SDS011;63163;55.630;37.594;2023-04-25T04:16:26;14.2;;;6.6;;
74644;SDS011;63163;55.630;37.594;2023-04-25T04:17:27;16.2;;;6.8;;
74644;SDS011;63163;55.630;37.594;2023-04-25T04:18:27;15.3;;;7.4;;
74644;SDS011;63163;55.630;37.594;2023-04-25T04:19:28;14.0;;;6.8;;
74644;SDS011;63163;55.630;37.594;2023-04-25T04:20:28;13.1;;;6.9;;
74644;SDS011;63163;55.630;37.594;2023-04-25T04:21:29;13.4;;;6.7;;
74644;SDS011;63163;55.630;37.594;2023-04-25T04:22:30;15.1;;;7.1;;
74644;SDS011;63163;55.630;37.594;2023-04-25T04:23:30;13.1;;;6.5;;
74644;SDS011;63163;55.630;37.594;2023-04-25T04:24:31;12.6;;;6.3;;
74644;SDS011;63163;55.630;37.594;2023-04-25T04:25:32;15.7;;;6.3;;
74644;SDS011;63163;55.630;37.594;2023-04-25T04:26:34;12.5;;;6.8;;
74644;SDS011;63163;55.630;37.594;2023-04-25T04:27:35;14.3;;;6.6;;
74644;SDS011;63163;55.630;37.594;2023-04-25T04:28:35;15.5;;;6.5;;
74644;SDS011;63163;55.630;37.594;2023-04-25T04:29:36;14.2;;;7.4;;
74644;SDS011;63163;55.630;37.594;2023-04-25T04:30:36;14.3;;;6.8;;
74644;SDS011;63163;55.630;37.594;2023-04-25T04:31:37;14.7;;;7.1;;
74644;SDS011;63163;55.630;37.594;2023-04-25T04:32:38;20.1;;;7.2;;
74644;SDS011;63163;55.630;37.594;2023-04-25T04:33:38;28.5;;;15.3;;
74644;SDS011;63163;55.630;37.594;2023-04-25T04:34:39;28.1;;;14.8;;
74644;SDS011;63163;55.630;37.594;2023-04-25T04:35:40;22.3;;;9.5;;
74644;SDS011;63163;55.630;37.594;2023-04-25T04:36:41;47.0;;;26.5;;
74644;SDS011;63163;55.630;37.594;2023-04-25T04:37:42;20.7;;;10.9;;
74644;SDS011;63163;55.630;37.594;2023-04-25T04:38:44;19.3;;;8.6;;
74644;SDS011;63163;55.630;37.594;2023-04-25T04:39:44;25.3;;;13.8;;
74644;SDS011;63163;55.630;37.594;2023-04-25T04:40:45;16.3;;;7.5;;
74644;SDS011;63163;55.630;37.594;2023-04-25T04:41:46;14.5;;;6.7;;
74644;SDS011;63163;55.630;37.594;2023-04-25T04:42:47;20.5;;;8.4;;
74644;SDS011;63163;55.630;37.594;2023-04-25T04:43:48;15.1;;;6.9;;
74644;SDS011;63163;55.630;37.594;2023-04-25T04:44:48;20.9;;;9.4;;
74644;SDS011;63163;55.630;37.594;2023-04-25T04:45:49;19.5;;;7.8;;
74644;SDS011;63163;55.630;37.594;2023-04-25T04:46:50;16.0;;;6.6;;
74644;SDS011;63163;55.630;37.594;2023-04-25T04:47:51;13.4;;;6.2;;
74644;SDS011;63163;55.630;37.594;2023-04-25T04:48:52;12.0;;;7.1;;
74644;SDS011;63163;55.630;37.594;2023-04-25T04:49:53;14.4;;;6.9;;
74644;SDS011;63163;55.630;37.594;2023-04-25T04:50:54;14.2;;;6.6;;
74644;SDS011;63163;55.630;37.594;2023-04-25T04:51:54;13.8;;;6.5;;
74644;SDS011;63163;55.630;37.594;2023-04-25T04:52:55;15.4;;;7.0;;
74644;SDS011;63163;55.630;37.594;2023-04-25T04:53:55;15.2;;;6.9;;
74644;SDS011;63163;55.630;37.594;2023-04-25T04:54:58;15.5;;;6.6;;
74644;SDS011;63163;55.630;37.594;2023-04-25T04:55:59;12.9;;;6.6;;
74644;SDS011;63163;55.630;37.594;2023-04-25T04:56:59;15.8;;;6.7;;
74644;SDS011;63163;55.630;37.594;2023-04-25T04:58:00;16.2;;;6.8;;
74644;SDS011;63163;55.630;37.594;2023-04-25T04:59:00;21.0;;;7.1;;
74644;SDS011;63163;55.630;37.594;2023-04-25T05:00:03;12.7;;;6.5;;
74644;SDS011;63163;55.630;37.594;2023-04-25T05:01:11;18.2;;;7.3;;
74644;SDS011;63163;55.630;37.594;2023-04-25T05:02:12;13.0;;;6.4;;
74644;SDS011;63163;55.630;37.594;2023-04-25T05:03:12;15.7;;;7.3;;
74644;SDS011;63163;55.630;37.594;2023-04-25T05:04:13;24.2;;;8.6;;
74644;SDS011;63163;55.630;37.594;2023-04-25T05:05:13;18.4;;;7.4;;
74644;SDS011;63163;55.630;37.594;2023-04-25T05:06:14;14.2;;;7.4;;
74644;SDS011;63163;55.630;37.594;2023-04-25T05:07:14;20.3;;;7.2;;
74644;SDS011;63163;55.630;37.594;2023-04-25T05:08:15;14.8;;;7.2;;
74644;SDS011;63163;55.630;37.594;2023-04-25T05:09:15;16.8;;;7.0;;
74644;SDS011;63163;55.630;37.594;2023-04-25T05:10:16;13.6;;;6.5;;
74644;SDS011;63163;55.630;37.594;2023-04-25T05:11:17;14.3;;;7.3;;
74644;SDS011;63163;55.630;37.594;2023-04-25T05:12:17;10.9;;;6.6;;
74644;SDS011;63163;55.630;37.594;2023-04-25T05:13:18;16.3;;;7.0;;
74644;SDS011;63163;55.630;37.594;2023-04-25T05:14:18;15.0;;;7.1;;
74644;SDS011;63163;55.630;37.594;2023-04-25T05:15:19;18.2;;;7.2;;
74644;SDS011;63163;55.630;37.594;2023-04-25T05:16:19;13.3;;;7.1;;
74644;SDS011;63163;55.630;37.594;2023-04-25T05:17:20;15.2;;;7.2;;
74644;SDS011;63163;55.630;37.594;2023-04-25T05:18:20;16.1;;;6.5;;
74644;SDS011;63163;55.630;37.594;2023-04-25T05:19:21;14.3;;;6.5;;
74644;SDS011;63163;55.630;37.594;2023-04-25T05:20:22;16.9;;;7.2;;
74644;SDS011;63163;55.630;37.594;2023-04-25T05:21:22;14.0;;;6.6;;
74644;SDS011;63163;55.630;37.594;2023-04-25T05:22:23;16.4;;;6.8;;
74644;SDS011;63163;55.630;37.594;2023-04-25T05:23:23;14.9;;;6.5;;
74644;SDS011;63163;55.630;37.594;2023-04-25T05:24:24;16.9;;;6.5;;
74644;SDS011;63163;55.630;37.594;2023-04-25T05:25:24;12.5;;;6.6;;
74644;SDS011;63163;55.630;37.594;2023-04-25T05:26:25;11.8;;;6.1;;
74644;SDS011;63163;55.630;37.594;2023-04-25T05:27:25;14.7;;;6.5;;
74644;SDS011;63163;55.630;37.594;2023-04-25T05:28:26;14.1;;;6.5;;
74644;SDS011;63163;55.630;37.594;2023-04-25T05:29:26;15.9;;;6.7;;
74644;SDS011;63163;55.630;37.594;2023-04-25T05:30:27;16.0;;;6.3;;
74644;SDS011;63163;55.630;37.594;2023-04-25T05:31:27;15.5;;;6.7;;
74644;SDS011;63163;55.630;37.594;2023-04-25T05:32:28;17.0;;;6.6;;
74644;SDS011;63163;55.630;37.594;2023-04-25T05:33:28;16.0;;;6.8;;
74644;SDS011;63163;55.630;37.594;2023-04-25T05:34:29;14.9;;;7.4;;
74644;SDS011;63163;55.630;37.594;2023-04-25T05:35:30;17.3;;;7.0;;
74644;SDS011;63163;55.630;37.594;2023-04-25T05:36:31;16.4;;;7.2;;
74644;SDS011;63163;55.630;37.594;2023-04-25T05:37:32;13.0;;;6.9;;
74644;SDS011;63163;55.630;37.594;2023-04-25T05:38:33;17.5;;;6.6;;
74644;SDS011;63163;55.630;37.594;2023-04-25T05:39:33;16.8;;;6.6;;
74644;SDS011;63163;55.630;37.594;2023-04-25T05:40:34;16.4;;;6.4;;
74644;SDS011;63163;55.630;37.594;2023-04-25T05:41:35;13.8;;;6.5;;
74644;SDS011;63163;55.630;37.594;2023-04-25T05:42:35;16.6;;;6.6;;
74644;SDS011;63163;55.630;37.594;2023-04-25T05:43:36;14.0;;;6.2;;
74644;SDS011;63163;55.630;37.594;2023-04-25T05:44:36;14.1;;;6.1;;
74644;SDS011;63163;55.630;37.594;2023-04-25T05:45:37;14.6;;;5.7;;
74644;SDS011;63163;55.630;37.594;2023-04-25T05:46:37;14.4;;;5.5;;
74644;SDS011;63163;55.630;37.594;2023-04-25T05:47:38;11.7;;;5.7;;
74644;SDS011;63163;55.630;37.594;2023-04-25T05:48:38;15.4;;;6.1;;
74644;SDS011;63163;55.630;37.594;2023-04-25T05:49:39;18.0;;;6.1;;
74644;SDS011;63163;55.630;37.594;2023-04-25T05:50:39;16.1;;;6.3;;
74644;SDS011;63163;55.630;37.594;2023-04-25T05:51:40;13.4;;;6.1;;
74644;SDS011;63163;55.630;37.594;2023-04-25T05:52:40;14.4;;;5.5;;
74644;SDS011;63163;55.630;37.594;2023-04-25T05:53:41;11.2;;;6.0;;
74644;SDS011;63163;55.630;37.594;2023-04-25T05:54:41;12.5;;;6.3;;
74644;SDS011;63163;55.630;37.594;2023-04-25T05:55:42;14.9;;;5.6;;
74644;SDS011;63163;55.630;37.594;2023-04-25T05:56:42;11.9;;;5.3;;
74644;SDS011;63163;55.630;37.594;2023-04-25T05:57:43;12.9;;;5.3;;
74644;SDS011;63163;55.630;37.594;2023-04-25T05:58:45;10.7;;;5.2;;
74644;SDS011;63163;55.630;37.594;2023-04-25T05:59:45;14.6;;;6.4;;
74644;SDS011;63163;55.630;37.594;2023-04-25T06:00:46;14.0;;;6.2;;
74644;SDS011;63163;55.630;37.594;2023-04-25T06:01:46;11.2;;;5.8;;
74644;SDS011;63163;55.630;37.594;2023-04-25T06:02:47;16.4;;;7.4;;
74644;SDS011;63163;55.630;37.594;2023-04-25T06:03:47;15.1;;;8.2;;
74644;SDS011;63163;55.630;37.594;2023-04-25T06:04:48;12.2;;;5.6;;
74644;SDS011;63163;55.630;37.594;2023-04-25T06:05:49;12.2;;;6.1;;
74644;SDS011;63163;55.630;37.594;2023-04-25T06:06:50;24.4;;;11.1;;